Time;durP1;ratioP1;P1;durP2;ratioP2;P2;SDS_P1;SDS_P2;PMS_P1;PMS_P2;Temp;Humidity;BMP_temperature;BMP_pressure;BME280_temperature;BME280_humidity;BME280_pressure;Samples;Min_cycle;Max_cycle;Signal;HPM_P1;HPM_P2
2021/09/04 00:01:08;;;;;;;5.80;2.22;;;19.50;78.30;;;;;;4973633;28;20033;-73
2021/09/04 00:03:34;;;;;;;4.60;2.60;;;19.50;78.20;;;;;;4973612;28;20483;-73
2021/09/04 00:06:00;;;;;;;8.45;3.75;;;19.40;78.10;;;;;;4971965;28;20109;-73
2021/09/04 00:08:26;;;;;;;5.45;3.33;;;19.40;78.10;;;;;;4974327;28;20431;-73
2021/09/04 00:10:53;;;;;;;6.88;3.17;;;19.40;78.00;;;;;;4973926;28;20169;-73
2021/09/04 00:13:19;;;;;;;5.57;2.60;;;19.40;78.00;;;;;;4972244;28;20104;-73
2021/09/04 00:15:45;;;;;;;6.35;2.67;;;19.40;78.10;;;;;;4973974;28;20054;-73
2021/09/04 00:18:11;;;;;;;5.90;2.80;;;19.40;77.90;;;;;;4973348;28;20116;-73
2021/09/04 00:20:37;;;;;;;7.32;3.03;;;19.30;77.90;;;;;;4972784;28;20031;-73
2021/09/04 00:23:03;;;;;;;7.88;2.35;;;19.30;78.00;;;;;;4973273;28;20505;-74
2021/09/04 00:25:29;;;;;;;5.03;2.10;;;19.30;78.00;;;;;;4971916;28;20027;-74
2021/09/04 00:27:57;;;;;;;6.80;2.60;;;19.30;77.70;;;;;;4973176;28;20069;-73
2021/09/04 00:30:23;;;;;;;7.20;2.58;;;19.30;77.60;;;;;;4972803;28;20049;-73
2021/09/04 00:32:49;;;;;;;5.47;2.53;;;19.30;77.40;;;;;;4973382;28;20117;-74
2021/09/04 00:35:15;;;;;;;8.18;2.33;;;19.30;77.40;;;;;;4973769;28;20762;-73
2021/09/04 00:37:40;;;;;;;4.35;2.05;;;19.30;77.60;;;;;;4972761;28;20077;-74
2021/09/04 00:40:07;;;;;;;6.90;2.65;;;19.30;77.60;;;;;;4973458;28;20813;-73
2021/09/04 00:42:32;;;;;;;5.30;2.08;;;19.30;77.60;;;;;;4971825;28;20042;-74
2021/09/04 00:44:58;;;;;;;6.65;2.13;;;19.30;77.70;;;;;;4973015;28;20030;-73
2021/09/04 00:47:24;;;;;;;5.20;2.03;;;19.20;77.70;;;;;;4971427;28;20034;-73
2021/09/04 00:49:50;;;;;;;3.45;2.00;;;19.30;77.80;;;;;;4972411;28;20042;-73
2021/09/04 00:52:18;;;;;;;8.10;2.42;;;19.20;77.70;;;;;;4973310;28;20101;-73
2021/09/04 00:54:43;;;;;;;7.05;2.28;;;19.30;77.80;;;;;;4971676;28;20478;-74
2021/09/04 00:57:09;;;;;;;8.98;2.15;;;19.30;77.80;;;;;;4973917;28;20031;-73
2021/09/04 00:59:35;;;;;;;5.10;1.98;;;19.30;77.70;;;;;;4971939;28;20034;-73
2021/09/04 01:02:01;;;;;;;10.15;2.20;;;19.20;77.70;;;;;;4971969;28;20483;-73
2021/09/04 01:04:27;;;;;;;7.60;2.33;;;19.30;78.40;;;;;;4971673;28;20421;-74
2021/09/04 01:06:56;;;;;;;9.70;2.25;;;19.20;77.70;;;;;;4971440;28;20031;-73
2021/09/04 01:09:21;;;;;;;5.03;1.90;;;19.20;77.70;;;;;;4960974;28;20038;-73
2021/09/04 01:11:48;;;;;;;4.97;2.03;;;19.20;77.80;;;;;;4971333;28;20039;-73
2021/09/04 01:14:13;;;;;;;7.15;2.00;;;19.20;77.80;;;;;;4963551;28;20475;-73
2021/09/04 01:16:42;;;;;;;5.07;2.13;;;19.20;77.50;;;;;;4971061;28;20089;-74
2021/09/04 01:19:08;;;;;;;13.70;2.30;;;19.20;78.10;;;;;;4972958;28;20030;-73
2021/09/04 01:21:35;;;;;;;7.32;2.45;;;19.20;77.40;;;;;;4972700;28;20041;-74
2021/09/04 01:24:02;;;;;;;8.50;2.03;;;19.20;77.40;;;;;;4970537;28;20035;-73
2021/09/04 01:26:28;;;;;;;5.40;2.03;;;19.20;77.50;;;;;;4973478;28;20097;-73
2021/09/04 01:28:55;;;;;;;14.52;2.38;;;19.20;77.40;;;;;;4970967;28;20030;-73
2021/09/04 01:31:23;;;;;;;4.90;1.90;;;19.20;77.40;;;;;;4972685;28;20052;-73
2021/09/04 01:33:49;;;;;;;4.30;1.90;;;19.10;77.60;;;;;;4971761;28;20101;-73
2021/09/04 01:36:36;;;;;;;8.15;2.25;;;19.10;77.50;;;;;;4971982;28;20125;-73
2021/09/04 01:39:04;;;;;;;4.90;1.95;;;19.10;77.70;;;;;;4971228;28;20074;-73
2021/09/04 01:41:30;;;;;;;8.43;2.17;;;19.10;77.80;;;;;;4972788;28;20042;-73
2021/09/04 01:43:56;;;;;;;4.97;2.60;;;19.10;78.00;;;;;;4970165;28;20034;-73
2021/09/04 01:46:22;;;;;;;9.57;2.25;;;19.10;78.00;;;;;;4971514;28;20038;-73
2021/09/04 01:48:48;;;;;;;8.10;2.30;;;19.10;78.10;;;;;;4972315;28;20085;-74
2021/09/04 01:51:14;;;;;;;8.82;2.10;;;19.10;78.20;;;;;;4968455;28;20055;-73
2021/09/04 01:53:41;;;;;;;4.80;1.90;;;19.00;77.90;;;;;;4972248;28;20356;-73
2021/09/04 01:56:08;;;;;;;7.75;1.85;;;19.00;78.10;;;;;;4965943;28;20217;-73
2021/09/04 01:58:34;;;;;;;8.63;2.38;;;19.00;78.20;;;;;;4968856;28;20077;-73
2021/09/04 02:01:00;;;;;;;3.97;1.60;;;19.00;78.30;;;;;;4965791;28;20067;-73
2021/09/04 02:03:25;;;;;;;3.00;1.77;;;19.00;78.30;;;;;;4967844;28;20035;-73
2021/09/04 02:05:51;;;;;;;7.30;2.13;;;19.00;78.30;;;;;;4972412;28;20364;-73
2021/09/04 02:08:16;;;;;;;8.07;2.13;;;19.00;78.30;;;;;;4968729;28;20027;-73
2021/09/04 02:10:45;;;;;;;7.43;2.05;;;19.00;78.30;;;;;;4968022;28;20374;-73
2021/09/04 02:13:11;;;;;;;5.60;2.28;;;19.00;78.30;;;;;;4971754;28;20026;-73
2021/09/04 02:15:36;;;;;;;8.50;2.33;;;18.90;78.10;;;;;;4968688;28;20419;-74
2021/09/04 02:18:02;;;;;;;9.00;2.65;;;18.90;78.00;;;;;;4974241;28;20061;-73
2021/09/04 02:20:28;;;;;;;8.50;2.60;;;19.00;78.20;;;;;;4970313;28;20038;-73
2021/09/04 02:22:54;;;;;;;10.43;2.42;;;18.90;78.20;;;;;;4974611;28;20030;-73
2021/09/04 02:25:21;;;;;;;6.35;2.25;;;18.90;78.30;;;;;;4975269;28;20035;-73
2021/09/04 02:27:48;;;;;;;5.88;2.35;;;18.90;78.20;;;;;;4975594;28;20428;-73
2021/09/04 02:30:15;;;;;;;8.40;2.00;;;18.90;78.10;;;;;;4975799;28;20050;-73
2021/09/04 02:32:41;;;;;;;7.93;2.28;;;18.90;78.10;;;;;;4975849;28;20039;-73
2021/09/04 02:35:07;;;;;;;5.63;2.03;;;18.90;78.00;;;;;;4974730;28;20029;-73
2021/09/04 02:37:33;;;;;;;8.38;2.55;;;19.00;78.00;;;;;;4965373;28;20027;-73
2021/09/04 02:40:01;;;;;;;8.25;2.65;;;19.00;78.00;;;;;;4963843;28;20472;-73
2021/09/04 02:42:28;;;;;;;6.88;3.03;;;19.00;77.90;;;;;;4971362;28;20034;-73
2021/09/04 02:44:54;;;;;;;7.97;2.83;;;19.00;78.00;;;;;;4976080;28;20057;-73
2021/09/04 02:47:20;;;;;;;7.53;2.45;;;18.90;78.00;;;;;;4974797;28;20384;-73
2021/09/04 02:49:45;;;;;;;4.95;2.50;;;19.00;78.30;;;;;;4973502;28;20034;-74
2021/09/04 02:52:11;;;;;;;10.10;3.97;;;18.90;78.40;;;;;;4975595;28;20034;-73
2021/09/04 02:54:37;;;;;;;9.98;3.75;;;18.90;78.30;;;;;;4974460;28;20037;-73
2021/09/04 02:57:04;;;;;;;10.98;3.20;;;18.90;78.30;;;;;;4968646;28;20073;-74
2021/09/04 02:59:30;;;;;;;7.95;3.85;;;18.90;78.60;;;;;;4975116;28;20050;-73
2021/09/04 03:01:59;;;;;;;14.05;3.15;;;18.90;78.60;;;;;;4968592;28;20031;-73
2021/09/04 03:04:25;;;;;;;12.10;3.03;;;18.90;78.60;;;;;;4972419;28;20039;-73
2021/09/04 03:06:52;;;;;;;7.50;2.75;;;18.90;78.60;;;;;;4971845;28;20126;-73
2021/09/04 03:09:18;;;;;;;9.25;2.47;;;18.80;78.60;;;;;;4973534;28;20038;-74
2021/09/04 03:11:44;;;;;;;6.30;2.92;;;18.80;78.60;;;;;;4974685;28;20039;-73
2021/09/04 03:14:11;;;;;;;9.27;2.72;;;18.90;78.70;;;;;;4974063;28;20042;-72
2021/09/04 03:16:37;;;;;;;7.80;2.53;;;18.80;78.60;;;;;;4973777;28;20062;-73
2021/09/04 03:19:04;;;;;;;8.73;2.58;;;18.80;78.60;;;;;;4974847;28;20069;-73
2021/09/04 03:21:30;;;;;;;5.40;2.38;;;18.80;78.70;;;;;;4972681;28;20054;-73
2021/09/04 03:23:56;;;;;;;5.50;2.45;;;18.90;78.80;;;;;;4974782;28;20414;-73
2021/09/04 03:26:23;;;;;;;7.80;2.25;;;18.90;78.80;;;;;;4974368;28;20041;-74
2021/09/04 03:28:49;;;;;;;8.35;2.72;;;18.80;78.70;;;;;;4959519;28;20101;-73
2021/09/04 03:31:15;;;;;;;9.40;2.20;;;18.90;78.80;;;;;;4975011;28;20038;-73
2021/09/04 03:33:41;;;;;;;9.02;2.30;;;18.90;78.60;;;;;;4973516;28;20061;-74
2021/09/04 03:36:11;;;;;;;7.72;2.33;;;18.90;78.60;;;;;;4973493;28;20034;-73
2021/09/04 03:38:37;;;;;;;6.50;2.38;;;18.90;78.60;;;;;;4973277;28;20039;-74
2021/09/04 03:41:04;;;;;;;7.32;2.33;;;18.90;78.70;;;;;;4972773;28;20041;-73
2021/09/04 03:43:30;;;;;;;9.10;2.47;;;18.90;78.60;;;;;;4973939;28;20383;-73
2021/09/04 03:45:55;;;;;;;6.63;2.20;;;18.90;78.60;;;;;;4973807;28;20077;-73
2021/09/04 03:48:22;;;;;;;5.97;2.33;;;18.90;78.40;;;;;;4973887;28;20364;-73
2021/09/04 03:50:48;;;;;;;5.28;2.30;;;18.90;78.30;;;;;;4972671;28;20053;-73
2021/09/04 03:53:14;;;;;;;6.25;2.10;;;18.90;78.30;;;;;;4974492;28;20471;-73
2021/09/04 03:55:40;;;;;;;9.18;2.33;;;18.90;78.20;;;;;;4972266;28;20042;-73
2021/09/04 03:58:06;;;;;;;8.00;2.17;;;18.90;78.20;;;;;;4973708;28;20069;-73
2021/09/04 04:00:32;;;;;;;10.07;2.20;;;18.90;78.20;;;;;;4972985;28;20498;-74
2021/09/04 04:03:00;;;;;;;8.00;2.22;;;18.80;78.20;;;;;;4973632;28;20077;-73
2021/09/04 04:05:26;;;;;;;4.82;2.00;;;18.90;78.00;;;;;;4973335;28;20023;-73
2021/09/04 04:07:52;;;;;;;7.25;2.20;;;18.80;78.00;;;;;;4973957;28;20027;-73
2021/09/04 04:10:18;;;;;;;13.95;2.50;;;18.80;77.90;;;;;;4974387;28;20035;-73
2021/09/04 04:12:44;;;;;;;7.15;2.58;;;18.80;78.00;;;;;;4972134;28;20046;-73
2021/09/04 04:15:10;;;;;;;10.40;2.67;;;18.80;77.90;;;;;;4974149;28;20398;-73
2021/09/04 04:17:36;;;;;;;7.07;2.20;;;18.80;78.00;;;;;;4971029;28;20061;-73
2021/09/04 04:20:03;;;;;;;6.13;2.00;;;18.80;77.90;;;;;;4971854;28;20109;-73
2021/09/04 04:22:30;;;;;;;4.45;1.63;;;18.80;77.70;;;;;;4973047;28;20053;-73
2021/09/04 04:24:55;;;;;;;6.68;2.00;;;18.70;77.40;;;;;;4971780;28;20470;-73
2021/09/04 04:27:21;;;;;;;11.48;2.42;;;18.70;77.30;;;;;;4973866;28;20478;-73
2021/09/04 04:29:47;;;;;;;8.50;2.20;;;18.70;77.70;;;;;;4972636;28;20027;-73
2021/09/04 04:32:15;;;;;;;9.52;2.10;;;18.70;77.40;;;;;;4972467;28;20039;-73
2021/09/04 04:34:43;;;;;;;9.50;2.95;;;18.80;77.30;;;;;;4972972;28;20046;-73
2021/09/04 04:37:10;;;;;;;7.93;2.20;;;18.70;77.50;;;;;;4968508;28;20038;-73
2021/09/04 04:39:36;;;;;;;4.80;2.00;;;18.70;78.30;;;;;;4961599;28;20073;-73
2021/09/04 04:42:05;;;;;;;7.07;1.90;;;18.70;77.70;;;;;;4973150;28;20039;-73
2021/09/04 04:44:31;;;;;;;5.03;2.00;;;18.60;77.70;;;;;;4973101;28;20034;-73
2021/09/04 04:47:00;;;;;;;11.10;2.20;;;18.70;77.50;;;;;;4972317;28;20035;-73
2021/09/04 04:49:26;;;;;;;3.00;1.52;;;18.60;77.50;;;;;;4971912;28;20470;-73
2021/09/04 04:51:52;;;;;;;6.43;1.92;;;18.60;77.50;;;;;;4972880;28;20038;-73
2021/09/04 04:54:18;;;;;;;5.55;1.95;;;18.60;77.50;;;;;;4971901;28;20122;-73
2021/09/04 04:56:44;;;;;;;9.43;2.25;;;18.70;77.40;;;;;;4972861;28;20058;-73
2021/09/04 04:59:10;;;;;;;5.50;1.60;;;18.60;77.50;;;;;;4971146;28;20038;-73
2021/09/04 05:01:36;;;;;;;13.27;2.00;;;18.60;77.50;;;;;;4972188;28;20077;-73
2021/09/04 05:04:03;;;;;;;4.32;1.77;;;18.70;77.60;;;;;;4973072;28;20034;-73
2021/09/04 05:06:29;;;;;;;4.03;2.00;;;18.60;77.50;;;;;;4972094;28;20039;-73
2021/09/04 05:08:54;;;;;;;4.38;1.90;;;18.60;77.60;;;;;;4959698;28;20039;-73
2021/09/04 05:11:22;;;;;;;10.93;2.40;;;18.60;77.60;;;;;;4972418;28;20046;-73
2021/09/04 05:13:48;;;;;;;5.63;2.25;;;18.60;77.70;;;;;;4971908;28;20038;-73
2021/09/04 05:16:15;;;;;;;4.22;1.90;;;18.60;77.70;;;;;;4971174;28;20093;-73
2021/09/04 05:18:41;;;;;;;3.33;1.88;;;18.60;77.90;;;;;;4972963;28;20045;-73
2021/09/04 05:21:07;;;;;;;6.35;1.90;;;18.60;77.80;;;;;;4971415;28;20038;-73
2021/09/04 05:23:34;;;;;;;5.43;1.92;;;18.60;77.80;;;;;;4972705;28;20027;-73
2021/09/04 05:26:00;;;;;;;8.88;2.35;;;18.60;77.80;;;;;;4962530;28;20035;-73
2021/09/04 05:28:26;;;;;;;5.70;2.60;;;18.60;77.70;;;;;;4969501;28;20027;-73
2021/09/04 05:30:51;;;;;;;3.40;1.92;;;18.60;77.70;;;;;;4972978;28;20031;-73
2021/09/04 05:33:17;;;;;;;4.60;2.00;;;18.60;77.70;;;;;;4971812;28;20038;-73
2021/09/04 05:35:43;;;;;;;7.22;1.83;;;18.60;77.60;;;;;;4970991;28;20379;-73
2021/09/04 05:38:09;;;;;;;9.88;2.22;;;18.60;77.50;;;;;;4972403;28;20042;-73
2021/09/04 05:40:35;;;;;;;8.10;2.25;;;18.60;77.50;;;;;;4971716;28;20027;-73
2021/09/04 05:43:00;;;;;;;5.53;1.88;;;18.60;77.50;;;;;;4971369;28;20037;-73
2021/09/04 05:45:26;;;;;;;9.68;1.90;;;18.60;77.90;;;;;;4972048;28;20110;-73
2021/09/04 05:47:52;;;;;;;6.45;2.05;;;18.60;77.30;;;;;;4970301;28;20031;-74
2021/09/04 05:50:17;;;;;;;7.35;2.30;;;18.60;77.40;;;;;;4970539;28;20054;-74
2021/09/04 05:52:43;;;;;;;11.95;3.88;;;18.70;77.60;;;;;;4973293;28;20043;-73
2021/09/04 05:55:09;;;;;;;6.65;2.75;;;18.60;77.70;;;;;;4975201;28;20019;-74
2021/09/04 05:57:34;;;;;;;5.22;1.83;;;18.70;77.90;;;;;;4975873;28;20434;-74
2021/09/04 06:00:00;;;;;;;5.18;1.77;;;18.70;77.90;;;;;;4976278;28;20502;-73
2021/09/04 06:02:26;;;;;;;6.53;2.45;;;18.70;78.00;;;;;;4974273;28;20066;-73
2021/09/04 06:04:51;;;;;;;9.88;2.80;;;18.70;77.90;;;;;;4975476;28;20050;-73
2021/09/04 06:07:17;;;;;;;4.85;2.22;;;18.70;77.90;;;;;;4973549;28;20385;-74
2021/09/04 06:09:42;;;;;;;7.43;2.40;;;18.70;77.80;;;;;;4976079;28;20049;-75
2021/09/04 06:12:08;;;;;;;6.55;2.15;;;18.70;77.50;;;;;;4975603;28;20054;-73
2021/09/04 06:14:34;;;;;;;8.00;2.30;;;18.70;77.40;;;;;;4973634;28;20039;-72
2021/09/04 06:16:59;;;;;;;7.30;2.00;;;18.80;77.30;;;;;;4975696;28;20473;-73
2021/09/04 06:19:25;;;;;;;4.55;2.00;;;18.70;77.30;;;;;;4973667;28;20459;-72
2021/09/04 06:21:50;;;;;;;4.72;2.10;;;18.70;77.20;;;;;;4975845;28;20069;-73
2021/09/04 06:24:16;;;;;;;5.47;1.92;;;18.80;77.30;;;;;;4975892;28;20033;-73
2021/09/04 06:26:42;;;;;;;6.85;2.05;;;18.80;77.20;;;;;;4974742;28;20061;-72
2021/09/04 06:29:07;;;;;;;8.48;2.13;;;18.80;77.20;;;;;;4975941;28;20043;-74
2021/09/04 06:31:33;;;;;;;6.78;2.00;;;18.80;77.30;;;;;;4973970;28;20093;-74
2021/09/04 06:33:59;;;;;;;7.40;2.28;;;18.80;77.10;;;;;;4975530;28;20509;-73
2021/09/04 06:36:24;;;;;;;7.38;2.35;;;18.80;77.30;;;;;;4976043;28;20046;-73
2021/09/04 06:38:50;;;;;;;6.90;1.88;;;18.70;77.40;;;;;;4973774;28;20038;-76
2021/09/04 06:41:15;;;;;;;5.70;1.95;;;18.80;77.30;;;;;;4974490;28;20030;-75
2021/09/04 06:43:41;;;;;;;6.28;2.03;;;18.80;76.90;;;;;;4975506;28;20054;-74
2021/09/04 06:46:07;;;;;;;3.92;2.08;;;18.80;76.80;;;;;;4974567;28;20027;-74
2021/09/04 06:48:32;;;;;;;6.95;2.55;;;18.80;76.80;;;;;;4975590;28;20029;-74
2021/09/04 06:50:58;;;;;;;10.48;2.15;;;18.80;76.70;;;;;;4974892;28;20042;-74
2021/09/04 06:53:24;;;;;;;5.72;2.05;;;18.80;76.80;;;;;;4972545;28;20039;-73
2021/09/04 06:55:49;;;;;;;7.32;2.00;;;18.80;76.70;;;;;;4975096;28;20467;-74
2021/09/04 06:58:15;;;;;;;13.40;2.17;;;18.80;76.60;;;;;;4974776;28;20027;-75
2021/09/04 07:00:40;;;;;;;8.55;2.08;;;18.80;76.70;;;;;;4973043;28;20038;-74
2021/09/04 07:03:06;;;;;;;6.95;2.40;;;18.80;76.60;;;;;;4973980;28;20106;-75
2021/09/04 07:05:31;;;;;;;7.45;1.92;;;18.80;76.60;;;;;;4971842;28;20027;-74
2021/09/04 07:07:57;;;;;;;9.90;2.05;;;18.80;76.50;;;;;;4972292;28;20031;-73
2021/09/04 07:10:23;;;;;;;6.47;2.28;;;18.80;76.40;;;;;;4971979;28;20367;-73
2021/09/04 07:12:48;;;;;;;5.45;1.95;;;18.80;76.60;;;;;;4970358;28;20525;-74
2021/09/04 07:15:14;;;;;;;5.45;1.73;;;18.90;76.50;;;;;;4971142;28;20066;-73
2021/09/04 07:17:40;;;;;;;8.05;2.20;;;18.90;76.70;;;;;;4971502;28;20038;-73
2021/09/04 07:20:09;;;;;;;3.83;1.90;;;18.90;76.40;;;;;;4972031;28;20528;-74
2021/09/04 07:22:35;;;;;;;3.60;1.77;;;18.90;76.30;;;;;;4971785;28;20027;-74
2021/09/04 07:25:00;;;;;;;5.93;1.73;;;18.90;75.90;;;;;;4971429;28;20034;-74
2021/09/04 07:27:26;;;;;;;4.53;2.20;;;18.90;75.70;;;;;;4971788;28;20019;-73
2021/09/04 07:29:51;;;;;;;7.47;2.28;;;19.00;75.50;;;;;;4969812;28;20043;-72
2021/09/04 07:32:17;;;;;;;7.07;2.30;;;19.00;75.40;;;;;;4970582;28;20093;-73
2021/09/04 07:34:42;;;;;;;3.80;1.80;;;19.00;75.50;;;;;;4970519;28;20467;-72
2021/09/04 07:37:08;;;;;;;4.43;2.17;;;19.00;75.50;;;;;;4969990;28;20035;-72
2021/09/04 07:39:34;;;;;;;5.55;2.42;;;19.10;75.40;;;;;;4971193;28;20027;-72
2021/09/04 07:41:59;;;;;;;12.57;2.55;;;19.10;75.20;;;;;;4970804;28;20053;-72
2021/09/04 07:44:25;;;;;;;9.02;2.85;;;19.10;75.20;;;;;;4970928;28;20030;-72
2021/09/04 07:46:50;;;;;;;11.15;3.20;;;19.10;75.10;;;;;;4970744;28;20031;-72
2021/09/04 07:49:16;;;;;;;12.80;3.17;;;19.20;75.20;;;;;;4969734;28;20070;-72
2021/09/04 07:51:42;;;;;;;8.75;2.72;;;19.20;75.00;;;;;;4969540;28;20109;-72
2021/09/04 07:54:07;;;;;;;7.47;3.13;;;19.20;75.20;;;;;;4971747;28;20196;-72
2021/09/04 07:56:33;;;;;;;8.40;2.72;;;19.20;75.00;;;;;;4970913;28;20035;-73
2021/09/04 07:58:58;;;;;;;8.48;2.90;;;19.20;75.00;;;;;;4970476;28;20035;-73
2021/09/04 08:01:24;;;;;;;6.25;3.15;;;19.20;74.70;;;;;;4971768;28;20037;-73
2021/09/04 08:03:50;;;;;;;6.38;3.00;;;19.20;74.60;;;;;;4969746;28;20030;-73
2021/09/04 08:06:15;;;;;;;15.35;4.18;;;19.30;74.70;;;;;;4970520;28;20035;-72
2021/09/04 08:08:41;;;;;;;13.15;4.35;;;19.30;74.90;;;;;;4971023;28;20034;-72
2021/09/04 08:11:06;;;;;;;10.07;4.38;;;19.30;74.60;;;;;;4970199;28;20030;-73
2021/09/04 08:13:32;;;;;;;7.95;3.72;;;19.30;74.40;;;;;;4972341;28;20520;-74
2021/09/04 08:15:58;;;;;;;9.80;4.15;;;19.20;74.50;;;;;;4970475;28;20047;-74
2021/09/04 08:18:23;;;;;;;9.48;3.80;;;19.30;74.40;;;;;;4971861;28;20034;-74
2021/09/04 08:20:49;;;;;;;9.10;3.95;;;19.30;74.70;;;;;;4973681;28;20478;-75
2021/09/04 08:23:15;;;;;;;6.85;3.47;;;19.30;76.10;;;;;;4972400;28;20031;-77
2021/09/04 08:25:41;;;;;;;8.10;4.05;;;19.40;77.50;;;;;;4972205;28;20466;-76
2021/09/04 08:28:08;;;;;;;14.07;3.88;;;19.40;78.50;;;;;;4971645;28;20486;-77
2021/09/04 08:30:35;;;;;;;11.95;3.60;;;19.40;78.60;;;;;;4973184;28;20109;-76
2021/09/04 08:33:01;;;;;;;15.45;4.05;;;19.40;79.00;;;;;;4971689;28;20065;-78
2021/09/04 08:35:27;;;;;;;10.48;3.28;;;19.40;78.90;;;;;;4973948;28;20026;-78
2021/09/04 08:37:53;;;;;;;14.07;3.90;;;19.40;79.00;;;;;;4972734;28;20026;-79
2021/09/04 08:40:20;;;;;;;9.73;3.88;;;19.40;79.30;;;;;;4971669;28;20074;-80
2021/09/04 08:42:46;;;;;;;11.10;4.13;;;19.40;79.20;;;;;;4971270;28;20035;-79
2021/09/04 08:45:12;;;;;;;8.25;3.80;;;19.40;79.40;;;;;;4968657;28;20030;-81
2021/09/04 08:47:38;;;;;;;12.88;3.67;;;19.50;79.20;;;;;;4970911;28;20385;-80
2021/09/04 08:50:05;;;;;;;8.93;3.60;;;19.50;78.90;;;;;;4970991;28;20368;-80
2021/09/04 08:52:31;;;;;;;10.40;4.25;;;19.50;78.90;;;;;;4970735;28;20038;-77
2021/09/04 08:54:57;;;;;;;12.88;3.95;;;19.50;79.20;;;;;;4970330;28;20130;-77
2021/09/04 08:57:22;;;;;;;7.53;4.30;;;19.50;78.90;;;;;;4968465;28;20035;-77
2021/09/04 08:59:52;;;;;;;14.82;4.40;;;19.60;79.10;;;;;;4970894;28;20386;-82
2021/09/04 09:02:29;;;;;;;10.05;4.53;;;19.60;78.80;;;;;;4968825;28;20495;-80
2021/09/04 09:05:05;;;;;;;14.77;4.40;;;19.60;78.40;;;;;;4969890;28;20034;-80
2021/09/04 09:07:39;;;;;;;15.10;3.88;;;19.70;78.80;;;;;;4967389;28;20061;-80
2021/09/04 09:10:05;;;;;;;9.40;4.22;;;19.70;79.20;;;;;;4971010;28;20069;-80
2021/09/04 09:12:31;;;;;;;12.90;4.32;;;19.70;79.50;;;;;;4960460;28;20043;-79
2021/09/04 09:14:58;;;;;;;11.95;4.38;;;19.70;78.70;;;;;;4970308;28;20391;-74
2021/09/04 09:17:25;;;;;;;16.50;4.78;;;19.80;78.50;;;;;;4971831;28;20073;-79
2021/09/04 09:20:06;;;;;;;14.50;5.63;;;19.80;78.80;;;;;;4968974;28;20622;-80
2021/09/04 09:22:43;;;;;;;8.65;4.38;;;19.70;78.70;;;;;;4971588;28;20110;-79
2021/09/04 09:25:13;;;;;;;15.07;5.20;;;19.80;79.00;;;;;;4971192;28;20070;-78
2021/09/04 09:27:59;;;;;;;20.20;5.32;;;19.80;78.70;;;;;;4971246;28;20062;-80
2021/09/04 09:30:33;;;;;;;9.68;4.65;;;19.80;79.20;;;;;;4971797;28;20030;-79
2021/09/04 09:32:59;;;;;;;12.13;4.80;;;19.90;79.30;;;;;;4973024;28;20050;-78
2021/09/04 09:35:37;;;;;;;12.07;4.88;;;19.90;79.30;;;;;;4969462;28;20027;-80
2021/09/04 09:38:06;;;;;;;11.52;5.15;;;19.80;79.00;;;;;;4970646;28;20023;-80
2021/09/04 09:40:32;;;;;;;7.18;4.18;;;19.90;79.40;;;;;;4970908;28;20102;-81
2021/09/04 09:42:58;;;;;;;11.85;4.10;;;19.90;79.80;;;;;;4969744;28;20072;-81
2021/09/04 09:45:47;;;;;;;17.23;4.50;;;19.90;80.30;;;;;;4972721;28;20038;-75
2021/09/04 09:48:15;;;;;;;8.07;3.83;;;19.90;79.90;;;;;;4971079;28;20035;-81
2021/09/04 09:50:41;;;;;;;11.68;4.45;;;19.90;80.60;;;;;;4969869;28;20386;-80
2021/09/04 09:53:06;;;;;;;12.80;4.93;;;19.90;80.40;;;;;;4972603;28;20026;-79
2021/09/04 09:55:33;;;;;;;12.80;4.00;;;19.90;80.00;;;;;;4970426;28;20043;-79
2021/09/04 09:57:59;;;;;;;12.10;4.35;;;20.00;80.20;;;;;;4972803;28;20027;-80
2021/09/04 10:00:27;;;;;;;12.13;4.93;;;20.00;79.90;;;;;;4971216;28;20034;-80
2021/09/04 10:02:58;;;;;;;15.50;4.35;;;20.10;79.50;;;;;;4970573;28;20034;-80
2021/09/04 10:05:27;;;;;;;13.63;4.15;;;20.10;79.20;;;;;;4968415;28;20117;-81
2021/09/04 10:07:57;;;;;;;11.30;4.53;;;20.20;79.70;;;;;;4971578;28;20382;-82
2021/09/04 10:10:27;;;;;;;10.07;4.18;;;20.20;79.70;;;;;;4972248;28;20039;-82
2021/09/04 10:12:54;;;;;;;11.85;4.95;;;20.20;79.40;;;;;;4971196;28;20490;-81
2021/09/04 10:15:22;;;;;;;10.60;4.50;;;20.20;79.10;;;;;;4972433;28;20177;-82
2021/09/04 10:17:51;;;;;;;7.32;3.50;;;20.30;78.70;;;;;;4969622;28;20042;-81
2021/09/04 10:20:18;;;;;;;9.77;4.82;;;20.30;79.10;;;;;;4971146;28;20537;-87
2021/09/04 10:22:44;;;;;;;7.60;3.58;;;20.30;79.00;;;;;;4970508;28;20050;-84
2021/09/04 10:25:20;;;;;;;10.55;4.15;;;20.40;79.30;;;;;;4969587;28;20133;-83
2021/09/04 10:27:48;;;;;;;13.93;3.60;;;20.40;79.00;;;;;;4970682;28;20031;-82
2021/09/04 10:30:38;;;;;;;9.80;4.20;;;20.40;79.30;;;;;;4970444;28;20043;-80
2021/09/04 10:33:07;;;;;;;8.55;4.20;;;20.40;79.00;;;;;;4970109;28;20050;-78
2021/09/04 10:35:40;;;;;;;12.43;4.95;;;20.40;78.60;;;;;;4970647;28;20133;-84
2021/09/04 10:38:18;;;;;;;9.00;3.80;;;20.50;77.90;;;;;;4971638;28;20166;-79
2021/09/04 10:40:45;;;;;;;11.23;4.22;;;20.50;78.60;;;;;;4974080;28;20478;-81
2021/09/04 10:43:12;;;;;;;8.43;3.75;;;20.50;78.50;;;;;;4973420;28;20520;-80
2021/09/04 10:45:38;;;;;;;12.55;3.67;;;20.50;78.30;;;;;;4972258;28;20034;-80
2021/09/04 10:48:21;;;;;;;5.88;3.50;;;20.50;78.40;;;;;;4974131;28;20042;-81
2021/09/04 10:51:03;;;;;;;7.00;3.67;;;20.60;78.20;;;;;;4974910;28;20039;-80
2021/09/04 10:53:42;;;;;;;9.33;3.47;;;20.70;77.80;;;;;;4973233;28;20050;-80
2021/09/04 10:56:25;;;;;;;25.35;3.60;;;20.70;78.60;;;;;;4974205;28;20286;-80
2021/09/04 10:58:52;;;;;;;10.53;4.77;;;20.70;78.40;;;;;;4972673;28;20043;-80
2021/09/04 11:01:53;;;;;;;13.95;4.35;;;20.80;77.90;;;;;;4973949;28;20749;-81
2021/09/04 11:04:19;;;;;;;9.63;4.20;;;20.80;77.70;;;;;;4966023;28;20074;-79
2021/09/04 11:06:49;;;;;;;12.35;4.10;;;20.80;77.90;;;;;;4973785;28;20050;-80
2021/09/04 11:09:17;;;;;;;8.70;3.80;;;20.70;77.20;;;;;;4972446;28;20042;-80
2021/09/04 11:11:43;;;;;;;7.90;3.42;;;20.80;77.50;;;;;;4972446;28;20039;-80
2021/09/04 11:14:19;;;;;;;8.05;3.40;;;20.70;77.50;;;;;;4971878;28;20106;-79
2021/09/04 11:16:50;;;;;;;6.55;3.22;;;20.70;77.60;;;;;;4971968;28;20085;-79
2021/09/04 11:19:29;;;;;;;8.88;3.50;;;20.80;78.20;;;;;;4971184;28;20110;-79
2021/09/04 11:22:21;;;;;;;11.63;3.75;;;20.80;77.90;;;;;;4971293;28;20038;-79
2021/09/04 11:24:47;;;;;;;4.93;2.40;;;20.80;78.10;;;;;;4970221;28;20038;-78
2021/09/04 11:27:14;;;;;;;7.45;3.85;;;20.80;78.60;;;;;;4972933;28;20019;-79
2021/09/04 11:29:47;;;;;;;10.70;4.32;;;20.80;78.10;;;;;;4972608;28;20786;-80
2021/09/04 11:32:15;;;;;;;12.40;3.75;;;20.80;77.30;;;;;;4971631;28;20126;-81
2021/09/04 11:34:46;;;;;;;10.18;3.53;;;20.80;77.10;;;;;;4971718;28;20470;-80
2021/09/04 11:37:36;;;;;;;8.25;2.90;;;20.80;77.10;;;;;;4972697;28;20078;-80
2021/09/04 11:40:06;;;;;;;8.30;3.47;;;20.90;78.00;;;;;;4969038;28;20049;-80
2021/09/04 11:42:36;;;;;;;7.75;3.53;;;20.90;77.80;;;;;;4971193;28;20126;-85
2021/09/04 11:45:08;;;;;;;8.60;3.15;;;21.00;77.80;;;;;;4970814;28;20038;-79
2021/09/04 11:47:36;;;;;;;8.80;3.08;;;21.00;78.10;;;;;;4972849;28;20129;-81
2021/09/04 11:50:05;;;;;;;11.23;3.50;;;20.90;78.60;;;;;;4969677;28;20034;-82
2021/09/04 11:52:34;;;;;;;16.00;4.05;;;21.00;78.00;;;;;;4974846;28;20133;-79
2021/09/04 11:55:20;;;;;;;8.10;3.85;;;21.00;77.30;;;;;;4973962;28;20023;-81
2021/09/04 11:57:57;;;;;;;7.90;3.03;;;21.00;77.40;;;;;;4972235;28;20049;-81
2021/09/04 12:00:30;;;;;;;6.03;2.95;;;21.00;77.70;;;;;;4969503;28;20042;-81
2021/09/04 12:02:57;;;;;;;;;;;21.10;77.90;;;;;;4973735;28;20031;-82
2021/09/04 12:05:28;;;;;;;10.73;4.20;;;21.10;78.90;;;;;;4970794;28;19917;-78
2021/09/04 12:07:59;;;;;;;10.00;3.80;;;21.10;77.20;;;;;;4973201;28;20127;-82
2021/09/04 12:10:27;;;;;;;11.35;3.10;;;21.10;76.90;;;;;;4973999;28;20447;-82
2021/09/04 12:12:56;;;;;;;9.45;3.42;;;21.10;77.40;;;;;;4970535;28;20039;-81
2021/09/04 12:15:22;;;;;;;6.03;2.28;;;21.20;76.40;;;;;;4966422;28;20116;-82
2021/09/04 12:17:53;;;;;;;10.02;3.20;;;21.20;76.70;;;;;;4971469;28;20049;-82
2021/09/04 12:20:26;;;;;;;8.55;3.40;;;21.20;77.10;;;;;;4972980;28;20043;-82
2021/09/04 12:22:59;;;;;;;9.57;3.40;;;21.30;77.00;;;;;;4970914;28;20031;-82
2021/09/04 12:25:30;;;;;;;9.98;3.63;;;21.30;76.40;;;;;;4972895;28;20364;-83
2021/09/04 12:28:08;;;;;;;13.18;3.38;;;21.40;76.20;;;;;;4971494;28;20026;-82
2021/09/04 12:31:00;;;;;;;12.85;3.20;;;21.40;76.30;;;;;;4967589;28;20030;-80
2021/09/04 12:33:27;;;;;;;11.13;3.00;;;21.40;76.40;;;;;;4966790;28;20057;-80
2021/09/04 12:35:57;;;;;;;8.10;3.17;;;21.40;76.20;;;;;;4971584;28;20034;-80
2021/09/04 12:38:31;;;;;;;6.68;3.72;;;21.40;76.60;;;;;;4971380;28;20113;-80
2021/09/04 12:41:08;;;;;;;8.23;3.53;;;21.40;75.60;;;;;;4971548;28;20038;-80
2021/09/04 12:43:57;;;;;;;6.05;2.92;;;21.40;75.10;;;;;;4972588;28;20446;-81
2021/09/04 12:46:35;;;;;;;8.50;3.45;;;21.40;76.20;;;;;;4967133;28;20031;-80
2021/09/04 12:49:21;;;;;;;7.68;3.40;;;21.40;76.00;;;;;;4968652;28;20058;-80